createdAt,value
2016-12-05T00:00:50.572Z,0
2016-12-05T00:01:50.590Z,0
2016-12-05T00:02:50.594Z,0
2016-12-05T00:03:50.292Z,0
2016-12-05T00:04:50.504Z,0
2016-12-05T00:05:50.633Z,0
2016-12-05T00:06:50.640Z,0
2016-12-05T00:07:50.971Z,0
2016-12-05T00:08:50.664Z,0
2016-12-05T00:09:50.997Z,0
2016-12-05T00:10:51.018Z,0
2016-12-05T00:11:50.387Z,0
2016-12-05T00:12:50.728Z,0
2016-12-05T00:13:51.045Z,0
2016-12-05T00:14:50.743Z,0
2016-12-05T00:15:50.762Z,0
2016-12-05T00:16:51.084Z,0
2016-12-05T00:17:50.774Z,0
2016-12-05T00:18:50.467Z,0
2016-12-05T00:19:50.483Z,0
2016-12-05T00:20:51.122Z,0
2016-12-05T00:21:50.500Z,0
2016-12-05T00:22:50.826Z,0
2016-12-05T00:23:50.839Z,0
2016-12-05T00:24:51.190Z,0
2016-12-05T00:25:50.562Z,0
2016-12-05T00:26:50.259Z,0
2016-12-05T00:27:50.902Z,0
2016-12-05T00:28:51.283Z,0
2016-12-05T00:29:50.915Z,0
2016-12-05T00:30:51.554Z,0
2016-12-05T00:31:51.251Z,0
2016-12-05T00:32:51.268Z,0
2016-12-05T00:33:51.269Z,0
2016-12-05T00:34:50.965Z,0
2016-12-05T00:35:50.980Z,0
2016-12-05T00:36:50.379Z,0
2016-12-05T00:37:51.001Z,0
2016-12-05T00:38:50.705Z,0
2016-12-05T00:39:51.025Z,0
2016-12-05T00:40:51.049Z,0
2016-12-05T00:41:51.370Z,0
2016-12-05T00:42:51.393Z,0
2016-12-05T00:43:51.705Z,0
2016-12-05T00:44:50.771Z,0
2016-12-05T00:45:50.780Z,0
2016-12-05T00:46:51.106Z,0
2016-12-05T00:47:51.439Z,0
2016-12-05T00:48:51.133Z,0
2016-12-05T00:49:51.164Z,0
2016-12-05T00:50:51.161Z,0
2016-12-05T00:51:51.490Z,0
2016-12-05T00:52:51.491Z,0
2016-12-05T00:53:51.519Z,0
2016-12-05T00:54:51.212Z,0
2016-12-05T00:55:50.901Z,0
2016-12-05T00:56:51.539Z,0
2016-12-05T00:57:51.555Z,0
2016-12-05T00:58:51.563Z,0
2016-12-05T00:59:51.260Z,0
2016-12-05T01:00:50.954Z,0
2016-12-05T01:01:51.279Z,0
2016-12-05T01:02:51.107Z,0
2016-12-05T01:03:51.315Z,0
2016-12-05T01:04:51.319Z,0
2016-12-05T01:05:51.334Z,0
2016-12-05T01:06:51.028Z,0
2016-12-05T01:07:51.353Z,0
2016-12-05T01:08:51.050Z,0
2016-12-05T01:09:51.701Z,0
2016-12-05T01:10:51.713Z,0
2016-12-05T01:11:51.082Z,0
2016-12-05T01:12:51.411Z,0
2016-12-05T01:13:50.792Z,0
2016-12-05T01:14:52.076Z,0
2016-12-05T01:15:51.446Z,0
2016-12-05T01:16:51.470Z,0
2016-12-05T01:17:51.790Z,0
2016-12-05T01:18:51.497Z,0
2016-12-05T01:19:51.815Z,0
2016-12-05T01:20:51.217Z,0
2016-12-05T01:21:50.899Z,0
2016-12-05T01:22:51.844Z,0
2016-12-05T01:23:50.964Z,0
2016-12-05T01:24:51.876Z,0
2016-12-05T01:25:51.899Z,0
2016-12-05T01:26:52.203Z,0
2016-12-05T01:27:52.223Z,0
2016-12-05T01:28:50.968Z,0
2016-12-05T01:29:51.954Z,0
2016-12-05T01:30:51.942Z,0
2016-12-05T01:31:51.948Z,0
2016-12-05T01:32:51.971Z,0
2016-12-05T01:33:51.339Z,0
2016-12-05T01:34:51.039Z,0
2016-12-05T01:35:51.388Z,0
2016-12-05T01:36:51.711Z,0
2016-12-05T01:37:51.073Z,0
2016-12-05T01:38:51.430Z,0
2016-12-05T01:39:52.163Z,0
2016-12-05T01:40:52.055Z,0
2016-12-05T01:41:51.750Z,0
2016-12-05T01:42:52.395Z,0
2016-12-05T01:43:52.412Z,0
2016-12-05T01:44:51.790Z,0
2016-12-05T01:45:52.109Z,0
2016-12-05T01:46:52.127Z,0
2016-12-05T01:47:51.825Z,0
2016-12-05T01:48:51.518Z,0
2016-12-05T01:49:51.847Z,0
2016-12-05T01:50:51.878Z,0
2016-12-05T01:51:51.571Z,0
2016-12-05T01:52:51.881Z,0
2016-12-05T01:53:51.886Z,0
2016-12-05T01:54:51.904Z,0
2016-12-05T01:55:52.467Z,0
2016-12-05T01:56:51.928Z,0
2016-12-05T01:57:51.631Z,0
2016-12-05T01:58:52.269Z,0
2016-12-05T01:59:51.957Z,0
2016-12-05T02:00:52.288Z,0
2016-12-05T02:01:51.673Z,0
2016-12-05T02:02:51.681Z,0
2016-12-05T02:03:52.006Z,0
2016-12-05T02:04:52.355Z,0
2016-12-05T02:05:52.033Z,0
2016-12-05T02:06:52.044Z,0
2016-12-05T02:07:52.058Z,0
2016-12-05T02:08:52.073Z,0
2016-12-05T02:09:51.761Z,0
2016-12-05T02:10:52.089Z,0
2016-12-05T02:11:52.132Z,0
2016-12-05T02:12:52.127Z,0
2016-12-05T02:13:52.145Z,0
2016-12-05T02:14:52.142Z,0
2016-12-05T02:15:52.150Z,0
2016-12-05T02:16:51.843Z,0
2016-12-05T02:17:52.173Z,0
2016-12-05T02:18:51.871Z,0
2016-12-05T02:19:52.191Z,0
2016-12-05T02:20:52.521Z,0
2016-12-05T02:21:52.537Z,0
2016-12-05T02:22:51.916Z,0
2016-12-05T02:23:51.935Z,0
2016-12-05T02:24:52.271Z,0
2016-12-05T02:25:51.971Z,0
2016-12-05T02:26:52.297Z,0
2016-12-05T02:27:51.996Z,0
2016-12-05T02:28:52.009Z,0
2016-12-05T02:29:52.642Z,0
2016-12-05T02:30:52.323Z,0
2016-12-05T02:31:52.028Z,0
2016-12-05T02:32:52.663Z,0
2016-12-05T02:33:52.048Z,0
2016-12-05T02:34:52.371Z,0
2016-12-05T02:35:52.070Z,0
2016-12-05T02:36:52.715Z,0
2016-12-05T02:37:52.092Z,0
2016-12-05T02:38:52.416Z,0
2016-12-05T02:39:53.063Z,0
2016-12-05T02:40:52.444Z,0
2016-12-05T02:41:52.467Z,0
2016-12-05T02:42:52.781Z,0
2016-12-05T02:43:52.804Z,0
2016-12-05T02:44:52.817Z,0
2016-12-05T02:45:52.816Z,0
2016-12-05T02:46:52.512Z,0
2016-12-05T02:47:52.845Z,0
2016-12-05T02:48:52.852Z,0
2016-12-05T02:49:52.231Z,0
2016-12-05T02:50:52.559Z,0
2016-12-05T02:51:52.254Z,0
2016-12-05T02:52:52.276Z,0
2016-12-05T02:53:52.915Z,0
2016-12-05T02:54:53.254Z,0
2016-12-05T02:55:52.631Z,0
2016-12-05T02:56:52.943Z,0
2016-12-05T02:57:52.677Z,0
2016-12-05T02:58:52.022Z,0
2016-12-05T02:59:52.980Z,0
2016-12-05T03:00:52.676Z,0
2016-12-05T03:01:52.691Z,0
2016-12-05T03:02:52.703Z,0
2016-12-05T03:03:53.028Z,0
2016-12-05T03:04:52.719Z,0
2016-12-05T03:05:53.371Z,0
2016-12-05T03:06:52.750Z,0
2016-12-05T03:07:52.762Z,0
2016-12-05T03:08:52.453Z,0
2016-12-05T03:09:53.419Z,0
2016-12-05T03:10:52.481Z,0
2016-12-05T03:11:52.493Z,0
2016-12-05T03:12:52.505Z,0
2016-12-05T03:13:53.467Z,0
2016-12-05T03:14:52.835Z,0
2016-12-05T03:15:53.164Z,0
2016-12-05T03:16:52.867Z,0
2016-12-05T03:17:52.558Z,0
2016-12-05T03:18:52.885Z,0
2016-12-05T03:19:52.896Z,0
2016-12-05T03:20:52.912Z,0
2016-12-05T03:21:52.920Z,0
2016-12-05T03:22:52.618Z,0
2016-12-05T03:23:52.627Z,0
2016-12-05T03:24:52.956Z,0
2016-12-05T03:25:52.653Z,0
2016-12-05T03:26:52.983Z,0
2016-12-05T03:27:52.991Z,0
2016-12-05T03:28:53.320Z,0
2016-12-05T03:29:53.028Z,0
2016-12-05T03:30:53.038Z,0
2016-12-05T03:31:53.040Z,0
2016-12-05T03:32:52.735Z,0
2016-12-05T03:33:52.742Z,0
2016-12-05T03:34:53.390Z,0
2016-12-05T03:35:53.084Z,0
2016-12-05T03:36:52.779Z,0
2016-12-05T03:37:52.486Z,0
2016-12-05T03:38:52.834Z,0
2016-12-05T03:39:53.130Z,0
2016-12-05T03:40:53.142Z,0
2016-12-05T03:41:52.841Z,0
2016-12-05T03:42:53.487Z,0
2016-12-05T03:43:52.544Z,0
2016-12-05T03:44:52.870Z,0
2016-12-05T03:45:53.211Z,0
2016-12-05T03:46:53.533Z,0
2016-12-05T03:47:53.234Z,0
2016-12-05T03:48:53.576Z,0
2016-12-05T03:49:53.563Z,0
2016-12-05T03:50:53.261Z,0
2016-12-05T03:51:52.950Z,0
2016-12-05T03:52:52.963Z,0
2016-12-05T03:53:52.974Z,0
2016-12-05T03:54:53.306Z,0
2016-12-05T03:55:53.630Z,0
2016-12-05T03:56:53.959Z,0
2016-12-05T03:57:53.035Z,0
2016-12-05T03:58:53.050Z,0
2016-12-05T03:59:53.045Z,0
2016-12-05T04:00:53.386Z,0
2016-12-05T04:01:53.382Z,0
2016-12-05T04:02:53.077Z,0
2016-12-05T04:03:53.091Z,0
2016-12-05T04:04:53.753Z,0
2016-12-05T04:05:53.117Z,0
2016-12-05T04:06:53.460Z,0
2016-12-05T04:07:53.469Z,0
2016-12-05T04:08:53.161Z,0
2016-12-05T04:09:53.475Z,0
2016-12-05T04:10:53.174Z,0
2016-12-05T04:11:53.498Z,0
2016-12-05T04:12:53.511Z,0
2016-12-05T04:13:53.522Z,0
2016-12-05T04:14:53.856Z,0
2016-12-05T04:15:53.235Z,0
2016-12-05T04:16:53.563Z,0
2016-12-05T04:17:53.575Z,0
2016-12-05T04:18:53.898Z,0
2016-12-05T04:19:53.916Z,0
2016-12-05T04:20:53.288Z,0
2016-12-05T04:21:53.936Z,0
2016-12-05T04:22:53.628Z,0
2016-12-05T04:23:53.637Z,0
2016-12-05T04:24:53.341Z,0
2016-12-05T04:25:53.394Z,0
2016-12-05T04:26:53.044Z,0
2016-12-05T04:27:54.003Z,0
2016-12-05T04:28:53.064Z,0
2016-12-05T04:29:53.389Z,0
2016-12-05T04:30:54.033Z,0
2016-12-05T04:31:53.732Z,0
2016-12-05T04:32:54.064Z,0
2016-12-05T04:33:53.122Z,0
2016-12-05T04:34:53.782Z,0
2016-12-05T04:35:53.477Z,0
2016-12-05T04:36:53.823Z,0
2016-12-05T04:37:53.484Z,0
2016-12-05T04:38:53.810Z,0
2016-12-05T04:39:53.197Z,0
2016-12-05T04:40:53.837Z,0
2016-12-05T04:41:53.847Z,0
2016-12-05T04:42:53.544Z,0
2016-12-05T04:43:53.868Z,0
2016-12-05T04:44:53.878Z,0
2016-12-05T04:45:53.894Z,0
2016-12-05T04:46:53.922Z,0
2016-12-05T04:47:53.916Z,0
2016-12-05T04:48:54.565Z,0
2016-12-05T04:50:08.836Z,0
2016-12-05T04:50:53.375Z,0
2016-12-05T04:51:53.954Z,0
2016-12-05T04:52:53.982Z,0
2016-12-05T04:53:54.302Z,0
2016-12-05T04:54:54.309Z,0
2016-12-05T04:55:54.007Z,0
2016-12-05T04:56:54.333Z,0
2016-12-05T04:57:54.346Z,0
2016-12-05T04:58:54.045Z,0
2016-12-05T04:59:53.743Z,0
2016-12-05T05:00:53.754Z,0
2016-12-05T05:01:54.397Z,0
2016-12-05T05:02:54.418Z,0
2016-12-05T05:03:54.095Z,0
2016-12-05T05:04:54.112Z,0
2016-12-05T05:05:53.836Z,0
2016-12-05T05:06:54.134Z,0
2016-12-05T05:07:54.151Z,0
2016-12-05T05:08:54.155Z,0
2016-12-05T05:09:53.536Z,0
2016-12-05T05:10:54.493Z,0
2016-12-05T05:11:53.590Z,0
2016-12-05T05:12:54.516Z,0
2016-12-05T05:13:54.212Z,0
2016-12-05T05:14:53.913Z,0
2016-12-05T05:15:54.551Z,0
2016-12-05T05:16:54.247Z,0
2016-12-05T05:17:54.573Z,0
2016-12-05T05:18:54.592Z,0
2016-12-05T05:19:54.280Z,0
2016-12-05T05:20:53.666Z,0
2016-12-05T05:21:54.621Z,0
2016-12-05T05:22:54.313Z,0
2016-12-05T05:23:54.364Z,0
2016-12-05T05:24:54.019Z,0
2016-12-05T05:25:54.370Z,0
2016-12-05T05:26:54.045Z,0
2016-12-05T05:27:54.389Z,0
2016-12-05T05:28:54.388Z,0
2016-12-05T05:29:54.076Z,0
2016-12-05T05:30:54.408Z,0
2016-12-05T05:31:54.102Z,0
2016-12-05T05:32:54.436Z,0
2016-12-05T05:33:54.450Z,0
2016-12-05T05:34:54.458Z,0
2016-12-05T05:35:53.839Z,0
2016-12-05T05:36:54.474Z,0
2016-12-05T05:37:54.198Z,0
2016-12-05T05:38:54.540Z,0
2016-12-05T05:39:54.837Z,0
2016-12-05T05:40:54.206Z,0
2016-12-05T05:41:54.532Z,0
2016-12-05T05:42:54.232Z,0
2016-12-05T05:43:54.553Z,0
2016-12-05T05:44:54.902Z,0
2016-12-05T05:45:54.930Z,0
2016-12-05T05:46:54.602Z,0
2016-12-05T05:47:55.236Z,0
2016-12-05T05:48:54.614Z,0
2016-12-05T05:49:54.623Z,0
2016-12-05T05:50:54.643Z,0
2016-12-05T05:51:54.330Z,0
2016-12-05T05:52:54.674Z,0
2016-12-05T05:53:55.303Z,0
2016-12-05T05:54:54.054Z,0
2016-12-05T05:55:55.029Z,0
2016-12-05T05:56:54.410Z,0
2016-12-05T05:57:54.401Z,0
2016-12-05T05:58:54.094Z,0
2016-12-05T05:59:54.432Z,0
2016-12-05T06:00:54.756Z,0
2016-12-05T06:01:54.790Z,0
2016-12-05T06:02:54.777Z,0
2016-12-05T06:03:55.105Z,0
2016-12-05T06:04:55.111Z,0
2016-12-05T06:05:54.488Z,0
2016-12-05T06:06:54.821Z,0
2016-12-05T06:07:54.838Z,0
2016-12-05T06:08:54.845Z,0
2016-12-05T06:09:54.219Z,0
2016-12-05T06:10:54.551Z,0
2016-12-05T06:11:54.879Z,0
2016-12-05T06:12:54.884Z,0
2016-12-05T06:13:54.620Z,0
2016-12-05T06:14:54.608Z,0
2016-12-05T06:15:54.980Z,0
2016-12-05T06:16:54.618Z,0
2016-12-05T06:17:54.316Z,0
2016-12-05T06:18:55.269Z,0
2016-12-05T06:19:54.676Z,0
2016-12-05T06:20:55.297Z,0
2016-12-05T06:21:54.991Z,0
2016-12-05T06:22:54.368Z,0
2016-12-05T06:23:55.650Z,0
2016-12-05T06:24:54.407Z,0
2016-12-05T06:25:55.036Z,0
2016-12-05T06:26:55.052Z,0
2016-12-05T06:27:54.741Z,0
2016-12-05T06:28:55.090Z,0
2016-12-05T06:29:54.764Z,0
2016-12-05T06:30:55.095Z,0
2016-12-05T06:31:54.792Z,0
2016-12-05T06:32:55.125Z,0
2016-12-05T06:33:55.780Z,0
2016-12-05T06:34:54.827Z,0
2016-12-05T06:35:55.781Z,0
2016-12-05T06:36:55.475Z,0
2016-12-05T06:37:55.173Z,0
2016-12-05T06:38:54.553Z,0
2016-12-05T06:39:54.881Z,0
2016-12-05T06:40:54.914Z,0
2016-12-05T06:41:54.903Z,0
2016-12-05T06:42:54.914Z,0
2016-12-05T06:43:55.244Z,0
2016-12-05T06:44:55.259Z,0
2016-12-05T06:45:54.632Z,0
2016-12-05T06:46:55.276Z,0
2016-12-05T06:47:54.969Z,0
2016-12-05T06:48:55.615Z,0
2016-12-05T06:49:55.021Z,0
2016-12-05T06:50:55.000Z,0
2016-12-05T06:51:55.044Z,0
2016-12-05T06:52:55.341Z,0
2016-12-05T06:53:55.035Z,0
2016-12-05T06:54:55.998Z,0
2016-12-05T06:55:55.376Z,0
2016-12-05T06:56:55.411Z,0
2016-12-05T06:57:54.774Z,0
2016-12-05T06:58:55.732Z,0
2016-12-05T06:59:55.422Z,0
2016-12-05T07:00:55.115Z,0
2016-12-05T07:01:55.130Z,0
2016-12-05T07:02:55.773Z,0
2016-12-05T07:03:55.477Z,0
2016-12-05T07:04:55.498Z,0
2016-12-05T07:05:56.120Z,0
2016-12-05T07:06:55.520Z,0
2016-12-05T07:07:55.204Z,0
2016-12-05T07:08:54.892Z,0
2016-12-05T07:09:56.171Z,0
2016-12-05T07:10:55.550Z,0
2016-12-05T07:11:55.563Z,0
2016-12-05T07:12:55.888Z,0
2016-12-05T07:13:55.928Z,0
2016-12-05T07:14:55.281Z,0
2016-12-05T07:15:55.303Z,0
2016-12-05T07:16:55.609Z,0
2016-12-05T07:17:56.255Z,0
2016-12-05T07:18:55.312Z,0
2016-12-05T07:19:55.959Z,0
2016-12-05T07:20:55.973Z,0
2016-12-05T07:21:55.666Z,0
2016-12-05T07:22:56.308Z,0
2016-12-05T07:23:55.684Z,0
2016-12-05T07:24:55.721Z,0
2016-12-05T07:25:55.395Z,0
2016-12-05T07:26:55.404Z,0
2016-12-05T07:27:55.416Z,0
2016-12-05T07:28:55.428Z,0
2016-12-05T07:29:55.758Z,0
2016-12-05T07:30:55.452Z,0
2016-12-05T07:31:56.093Z,0
2016-12-05T07:32:56.105Z,0
2016-12-05T07:33:56.426Z,0
2016-12-05T07:34:55.498Z,0
2016-12-05T07:35:55.826Z,0
2016-12-05T07:36:55.543Z,0
2016-12-05T07:37:56.519Z,0
2016-12-05T07:38:55.872Z,0
2016-12-05T07:39:55.865Z,0
2016-12-05T07:40:55.297Z,0
2016-12-05T07:41:55.573Z,0
2016-12-05T07:42:55.581Z,0
2016-12-05T07:43:55.909Z,0
2016-12-05T07:44:55.919Z,0
2016-12-05T07:45:56.568Z,0
2016-12-05T07:46:55.628Z,0
2016-12-05T07:47:56.270Z,0
2016-12-05T07:48:55.649Z,0
2016-12-05T07:49:55.345Z,5
2016-12-05T07:50:55.674Z,5
2016-12-05T07:51:55.681Z,5
2016-12-05T07:52:55.388Z,5
2016-12-05T07:53:56.342Z,5
2016-12-05T07:54:56.045Z,5
2016-12-05T07:55:56.430Z,5
2016-12-05T07:56:56.055Z,5
2016-12-05T07:57:56.062Z,5
2016-12-05T07:58:56.072Z,5
2016-12-05T07:59:56.404Z,5
2016-12-05T08:00:55.777Z,5
2016-12-05T08:01:55.799Z,5
2016-12-05T08:02:55.806Z,5
2016-12-05T08:03:56.447Z,5
2016-12-05T08:04:55.507Z,5
2016-12-05T08:05:56.166Z,5
2016-12-05T08:06:56.476Z,5
2016-12-05T08:07:55.862Z,5
2016-12-05T08:08:56.811Z,5
2016-12-05T08:09:56.197Z,5
2016-12-05T08:10:56.248Z,5
2016-12-05T08:11:56.531Z,5
2016-12-05T08:12:56.544Z,5
2016-12-05T08:13:56.237Z,5
2016-12-05T08:14:55.983Z,5
2016-12-05T08:15:56.272Z,5
2016-12-05T08:16:56.275Z,5
2016-12-05T08:17:56.605Z,5
2016-12-05T08:18:56.607Z,5
2016-12-05T08:19:56.622Z,5
2016-12-05T08:20:56.000Z,5
2016-12-05T08:21:56.327Z,5
2016-12-05T08:22:56.335Z,5
2016-12-05T08:23:56.042Z,5
2016-12-05T08:24:56.675Z,10
2016-12-05T08:25:56.055Z,5
2016-12-05T08:26:56.698Z,5
2016-12-05T08:27:56.388Z,5
2016-12-05T08:28:57.034Z,5
2016-12-05T08:29:56.730Z,5
2016-12-05T08:30:56.431Z,5
2016-12-05T08:31:56.472Z,5
2016-12-05T08:32:55.826Z,5
2016-12-05T08:33:56.141Z,5
2016-12-05T08:34:56.476Z,5
2016-12-05T08:35:56.479Z,10
2016-12-05T08:36:56.179Z,10
2016-12-05T08:37:56.822Z,10
2016-12-05T08:38:57.153Z,10
2016-12-05T08:39:56.531Z,10
2016-12-05T08:40:56.852Z,10
2016-12-05T08:41:56.261Z,10
2016-12-05T08:42:56.561Z,10
2016-12-05T08:43:56.762Z,10
2016-12-05T08:44:56.586Z,15
2016-12-05T08:45:56.598Z,15
2016-12-05T08:46:56.917Z,15
2016-12-05T08:47:56.332Z,15
2016-12-05T08:48:56.322Z,20
2016-12-05T08:49:56.334Z,20
2016-12-05T08:50:56.344Z,25
2016-12-05T08:51:56.659Z,20
2016-12-05T08:52:56.040Z,20
2016-12-05T08:53:56.680Z,20
2016-12-05T08:54:57.322Z,20
2016-12-05T08:55:56.703Z,20
2016-12-05T08:56:57.346Z,15
2016-12-05T08:57:57.046Z,15
2016-12-05T08:58:57.075Z,15
2016-12-05T08:59:56.427Z,15
2016-12-05T09:00:56.436Z,15
2016-12-05T09:01:56.458Z,15
2016-12-05T09:02:56.777Z,20
2016-12-05T09:03:56.478Z,20
2016-12-05T09:04:56.819Z,20
2016-12-05T09:05:57.454Z,20
2016-12-05T09:06:57.139Z,20
2016-12-05T09:07:57.461Z,20
2016-12-05T09:08:57.159Z,20
2016-12-05T09:09:57.172Z,20
2016-12-05T09:10:56.237Z,20
2016-12-05T09:11:56.899Z,25
2016-12-05T09:12:56.889Z,25
2016-12-05T09:13:56.585Z,25
2016-12-05T09:14:56.907Z,30
2016-12-05T09:15:56.639Z,35
2016-12-05T09:16:57.585Z,30
2016-12-05T09:17:56.949Z,30
2016-12-05T09:18:56.640Z,30
2016-12-05T09:19:57.596Z,35
2016-12-05T09:20:56.982Z,35
2016-12-05T09:21:57.318Z,30
2016-12-05T09:22:57.321Z,35
2016-12-05T09:23:57.328Z,50
2016-12-05T09:24:57.339Z,45
2016-12-05T09:25:57.040Z,55
2016-12-05T09:26:57.359Z,55
2016-12-05T09:27:56.742Z,65
2016-12-05T09:28:57.383Z,60
2016-12-05T09:29:56.446Z,60
2016-12-05T09:30:57.126Z,80
2016-12-05T09:31:57.416Z,80
2016-12-05T09:32:56.818Z,95
2016-12-05T09:33:56.833Z,135
2016-12-05T09:34:57.455Z,135
2016-12-05T09:35:57.153Z,120
2016-12-05T09:36:57.162Z,160
2016-12-05T09:37:57.486Z,265
2016-12-05T09:38:57.187Z,310
2016-12-05T09:39:57.199Z,325
2016-12-05T09:40:57.850Z,295
2016-12-05T09:41:56.914Z,305
2016-12-05T09:42:57.258Z,310
2016-12-05T09:43:57.587Z,275
2016-12-05T09:44:57.262Z,135
2016-12-05T09:45:57.594Z,65
2016-12-05T09:46:57.291Z,205
2016-12-05T09:47:56.988Z,285
2016-12-05T09:48:57.318Z,215
2016-12-05T09:49:57.980Z,140
2016-12-05T09:50:57.033Z,120
2016-12-05T09:51:57.674Z,115
2016-12-05T09:52:57.695Z,110
2016-12-05T09:53:57.388Z,105
2016-12-05T09:54:57.095Z,105
2016-12-05T09:55:57.784Z,115
2016-12-05T09:56:57.116Z,120
2016-12-05T09:57:57.445Z,110
2016-12-05T09:58:57.144Z,105
2016-12-05T09:59:57.783Z,90
2016-12-05T10:00:57.489Z,85
2016-12-05T10:01:57.823Z,85
2016-12-05T10:02:57.203Z,90
2016-12-05T10:03:57.534Z,100
2016-12-05T10:04:57.550Z,105
2016-12-05T10:05:57.254Z,100
2016-12-05T10:06:57.585Z,90
2016-12-05T10:07:57.595Z,95
2016-12-05T10:08:57.300Z,100
2016-12-05T10:09:57.335Z,105
2016-12-05T10:10:57.638Z,105
2016-12-05T10:11:57.976Z,105
2016-12-05T10:12:58.303Z,105
2016-12-05T10:13:57.708Z,105
2016-12-05T10:14:57.384Z,105
2016-12-05T10:15:58.059Z,100
2016-12-05T10:16:58.054Z,100
2016-12-05T10:17:57.767Z,100
2016-12-05T10:18:57.766Z,105
2016-12-05T10:19:57.474Z,110
2016-12-05T10:20:57.798Z,115
2016-12-05T10:21:58.127Z,115
2016-12-05T10:22:58.150Z,120
2016-12-05T10:23:58.503Z,125
2016-12-05T10:24:58.177Z,120
2016-12-05T10:25:57.557Z,125
2016-12-05T10:26:58.213Z,130
2016-12-05T10:27:57.593Z,145
2016-12-05T10:28:57.609Z,155
2016-12-05T10:29:57.320Z,150
2016-12-05T10:30:57.646Z,150
2016-12-05T10:31:58.000Z,160
2016-12-05T10:32:58.311Z,170
2016-12-05T10:33:58.007Z,190
2016-12-05T10:34:58.037Z,195
2016-12-05T10:35:57.739Z,185
2016-12-05T10:36:58.055Z,175
2016-12-05T10:37:58.094Z,185
2016-12-05T10:38:58.087Z,175
2016-12-05T10:39:58.736Z,155
2016-12-05T10:40:57.499Z,140
2016-12-05T10:41:57.826Z,145
2016-12-05T10:42:57.528Z,160
2016-12-05T10:43:58.171Z,155
2016-12-05T10:44:57.873Z,150
2016-12-05T10:45:57.888Z,155
2016-12-05T10:46:58.224Z,155
2016-12-05T10:47:58.250Z,125
2016-12-05T10:48:58.614Z,100
2016-12-05T10:49:58.610Z,95
2016-12-05T10:50:57.657Z,100
2016-12-05T10:51:57.985Z,95
2016-12-05T10:52:58.330Z,90
2016-12-05T10:53:58.349Z,90
2016-12-05T10:54:58.090Z,85
2016-12-05T10:55:58.071Z,80
2016-12-05T10:56:58.382Z,80
2016-12-05T10:57:58.717Z,75
2016-12-05T10:58:58.109Z,75
2016-12-05T10:59:58.753Z,75
2016-12-05T11:00:58.138Z,75
2016-12-05T11:01:58.469Z,70
2016-12-05T11:02:57.851Z,70
2016-12-05T11:03:58.523Z,70
2016-12-05T11:04:57.912Z,70
2016-12-05T11:05:58.534Z,70
2016-12-05T11:06:58.590Z,75
2016-12-05T11:07:58.893Z,75
2016-12-05T11:08:58.267Z,75
2016-12-05T11:09:58.915Z,75
2016-12-05T11:10:58.660Z,75
2016-12-05T11:11:58.335Z,70
2016-12-05T11:12:58.042Z,70
2016-12-05T11:13:58.672Z,70
2016-12-05T11:14:59.005Z,70
2016-12-05T11:15:59.334Z,75
2016-12-05T11:16:58.721Z,70
2016-12-05T11:17:58.435Z,70
2016-12-05T11:18:58.438Z,70
2016-12-05T11:19:58.767Z,70
2016-12-05T11:20:59.108Z,70
2016-12-05T11:21:58.491Z,70
2016-12-05T11:22:58.835Z,70
2016-12-05T11:23:59.155Z,75
2016-12-05T11:24:58.850Z,75
2016-12-05T11:25:58.876Z,75
2016-12-05T11:26:58.568Z,75
2016-12-05T11:27:58.924Z,75
2016-12-05T11:28:58.625Z,75
2016-12-05T11:29:58.960Z,75
2016-12-05T11:30:58.956Z,70
2016-12-05T11:31:58.972Z,70
2016-12-05T11:32:58.684Z,70
2016-12-05T11:33:59.010Z,70
2016-12-05T11:34:59.340Z,70
2016-12-05T11:35:58.741Z,70
2016-12-05T11:36:59.413Z,70
2016-12-05T11:37:59.396Z,70
2016-12-05T11:38:58.804Z,65
2016-12-05T11:39:59.115Z,70
2016-12-05T11:40:58.502Z,65
2016-12-05T11:41:58.517Z,70
2016-12-05T11:42:58.880Z,65
2016-12-05T11:43:59.500Z,65
2016-12-05T11:44:58.891Z,65
2016-12-05T11:45:59.217Z,65
2016-12-05T11:46:59.550Z,65
2016-12-05T11:47:59.256Z,65
2016-12-05T11:48:59.272Z,65
2016-12-05T11:49:59.285Z,65
2016-12-05T11:50:58.676Z,65
2016-12-05T11:51:59.641Z,65
2016-12-05T11:52:59.362Z,65
2016-12-05T11:53:59.377Z,65
2016-12-05T11:54:59.063Z,65
2016-12-05T11:55:59.080Z,65
2016-12-05T11:56:59.413Z,65
2016-12-05T11:57:59.430Z,65
2016-12-05T11:58:59.136Z,65
2016-12-05T11:59:59.468Z,65
2016-12-05T12:00:59.487Z,65
2016-12-05T12:01:58.869Z,65
2016-12-05T12:02:59.521Z,65
2016-12-05T12:03:59.218Z,60
2016-12-05T12:04:59.287Z,60
2016-12-05T12:05:59.308Z,60
2016-12-05T12:06:59.273Z,60
2016-12-05T12:07:59.613Z,60
2016-12-05T12:08:59.625Z,60
2016-12-05T12:09:59.661Z,60
2016-12-05T12:10:59.666Z,60
2016-12-05T12:11:59.990Z,60
2016-12-05T12:13:00.013Z,60
2016-12-05T12:13:59.404Z,55
2016-12-05T12:15:00.066Z,55
2016-12-05T12:16:00.066Z,55
2016-12-05T12:16:59.452Z,55
2016-12-05T12:18:00.106Z,55
2016-12-05T12:19:00.122Z,55
2016-12-05T12:20:00.134Z,55
2016-12-05T12:21:00.172Z,55
2016-12-05T12:21:59.865Z,60
2016-12-05T12:22:59.896Z,55
2016-12-05T12:23:59.894Z,55
2016-12-05T12:25:00.549Z,55
2016-12-05T12:25:59.305Z,55
2016-12-05T12:27:00.266Z,55
2016-12-05T12:27:59.337Z,55
2016-12-05T12:28:59.986Z,55
2016-12-05T12:29:59.376Z,55
2016-12-05T12:31:00.023Z,55
2016-12-05T12:31:59.722Z,55
2016-12-05T12:33:00.419Z,55
2016-12-05T12:33:59.759Z,55
2016-12-05T12:34:59.795Z,55
2016-12-05T12:35:59.815Z,55
2016-12-05T12:36:59.825Z,55
2016-12-05T12:38:00.468Z,55
2016-12-05T12:38:59.851Z,60
2016-12-05T12:40:00.201Z,55
2016-12-05T12:40:59.896Z,55
2016-12-05T12:41:59.919Z,50
2016-12-05T12:43:00.242Z,55
2016-12-05T12:44:00.580Z,55
2016-12-05T12:45:00.283Z,55
2016-12-05T12:45:59.988Z,55
2016-12-05T12:46:59.685Z,55
2016-12-05T12:48:00.359Z,55
2016-12-05T12:49:00.667Z,55
2016-12-05T12:50:00.370Z,50
2016-12-05T12:51:00.705Z,50
2016-12-05T12:52:00.759Z,50
2016-12-05T12:53:00.426Z,50
2016-12-05T12:54:00.133Z,50
2016-12-05T12:55:00.801Z,50
2016-12-05T12:56:00.181Z,50
2016-12-05T12:57:00.501Z,50
2016-12-05T12:58:00.515Z,50
2016-12-05T12:58:59.917Z,50
2016-12-05T13:00:00.549Z,50
2016-12-05T13:01:00.257Z,50
2016-12-05T13:02:00.584Z,50
2016-12-05T13:03:00.292Z,50
2016-12-05T13:04:00.940Z,50
2016-12-05T13:05:00.966Z,45
2016-12-05T13:06:00.666Z,45
2016-12-05T13:07:01.001Z,45
2016-12-05T13:08:00.421Z,45
2016-12-05T13:09:00.415Z,45
2016-12-05T13:10:00.730Z,45
2016-12-05T13:11:01.384Z,45
2016-12-05T13:12:00.780Z,45
2016-12-05T13:13:00.477Z,45
2016-12-05T13:14:00.490Z,45
2016-12-05T13:15:00.846Z,45
2016-12-05T13:16:00.846Z,45
2016-12-05T13:17:01.185Z,45
2016-12-05T13:18:01.210Z,45
2016-12-05T13:19:00.899Z,40
2016-12-05T13:20:01.235Z,40
2016-12-05T13:21:00.621Z,40
2016-12-05T13:22:01.274Z,40
2016-12-05T13:23:00.975Z,40
2016-12-05T13:24:01.307Z,40
2016-12-05T13:25:01.333Z,40
2016-12-05T13:26:01.347Z,40
2016-12-05T13:27:01.365Z,40
2016-12-05T13:28:01.067Z,40
2016-12-05T13:29:01.090Z,40
2016-12-05T13:30:00.782Z,40
2016-12-05T13:31:01.445Z,40
2016-12-05T13:32:00.502Z,40
2016-12-05T13:33:00.841Z,35
2016-12-05T13:34:01.498Z,35
2016-12-05T13:35:01.509Z,35
2016-12-05T13:36:01.541Z,35
2016-12-05T13:37:00.592Z,35
2016-12-05T13:38:00.611Z,35
2016-12-05T13:39:00.949Z,35
2016-12-05T13:40:00.966Z,35
2016-12-05T13:41:01.299Z,35
2016-12-05T13:42:01.641Z,35
2016-12-05T13:43:01.968Z,35
2016-12-05T13:44:01.351Z,35
2016-12-05T13:45:01.377Z,35
2016-12-05T13:46:01.076Z,35
2016-12-05T13:47:01.093Z,30
2016-12-05T13:48:01.425Z,30
2016-12-05T13:49:16.335Z,30
2016-12-05T13:50:01.460Z,30
2016-12-05T13:51:01.790Z,30
2016-12-05T13:52:01.514Z,30
2016-12-05T13:53:01.536Z,30
2016-12-05T13:54:01.852Z,30
2016-12-05T13:55:01.553Z,30
2016-12-05T13:56:01.881Z,30
2016-12-05T13:57:01.283Z,30
2016-12-05T13:58:01.601Z,30
2016-12-05T13:59:01.956Z,30
2016-12-05T14:00:01.954Z,30
2016-12-05T14:01:01.976Z,30
2016-12-05T14:02:01.049Z,30
2016-12-05T14:03:01.378Z,30
2016-12-05T14:04:01.401Z,30
2016-12-05T14:05:02.364Z,30
2016-12-05T14:06:01.436Z,30
2016-12-05T14:07:01.456Z,30
2016-12-05T14:08:02.098Z,30
2016-12-05T14:09:02.434Z,30
2016-12-05T14:10:01.842Z,25
2016-12-05T14:11:01.853Z,25
2016-12-05T14:12:01.848Z,25
2016-12-05T14:13:01.235Z,25
2016-12-05T14:14:02.237Z,25
2016-12-05T14:15:01.598Z,25
2016-12-05T14:16:01.923Z,25
2016-12-05T14:17:02.264Z,20
2016-12-05T14:18:01.645Z,20
2016-12-05T14:19:01.978Z,15
2016-12-05T14:20:01.996Z,15
2016-12-05T14:21:01.714Z,10
2016-12-05T14:22:01.742Z,10
2016-12-05T14:23:01.737Z,10
2016-12-05T14:24:01.759Z,5
2016-12-05T14:25:02.405Z,5
2016-12-05T14:26:02.418Z,5
2016-12-05T14:27:02.771Z,5
2016-12-05T14:28:01.496Z,5
2016-12-05T14:29:02.150Z,5
2016-12-05T14:30:02.175Z,5
2016-12-05T14:31:01.874Z,5
2016-12-05T14:32:02.204Z,5